createdAt,value
2022-09-23T00:00:47.480Z,1017.83
2022-09-23T00:01:47.533Z,1017.84
2022-09-23T00:02:47.561Z,1017.82
2022-09-23T00:03:47.518Z,1017.78
2022-09-23T00:04:47.553Z,1017.77
2022-09-23T00:05:47.581Z,1017.75
2022-09-23T00:06:47.612Z,1017.77
2022-09-23T00:07:47.641Z,1017.76
2022-09-23T00:08:47.674Z,1017.75
2022-09-23T00:09:47.703Z,1017.77
2022-09-23T00:10:47.735Z,1017.74
2022-09-23T00:11:47.767Z,1017.76
2022-09-23T00:12:47.798Z,1017.78
2022-09-23T00:13:47.827Z,1017.78
2022-09-23T00:14:47.857Z,1017.76
2022-09-23T00:15:47.889Z,1017.72
2022-09-23T00:16:47.963Z,1017.71
2022-09-23T00:17:47.954Z,1017.73
2022-09-23T00:18:48.014Z,1017.73
2022-09-23T00:19:48.013Z,1017.73
2022-09-23T00:20:48.051Z,1017.71
2022-09-23T00:21:48.074Z,1017.70
2022-09-23T00:22:48.103Z,1017.69
2022-09-23T00:23:48.136Z,1017.74
2022-09-23T00:24:48.167Z,1017.71
2022-09-23T00:25:48.197Z,1017.71
2022-09-23T00:26:48.226Z,1017.70
2022-09-23T00:27:48.259Z,1017.69
2022-09-23T00:28:48.292Z,1017.68
2022-09-23T00:29:48.328Z,1017.67
2022-09-23T00:30:48.373Z,1017.68
2022-09-23T00:31:48.382Z,1017.66
2022-09-23T00:32:48.414Z,1017.65
2022-09-23T00:33:48.446Z,1017.66
2022-09-23T00:34:48.476Z,1017.64
2022-09-23T00:35:48.510Z,1017.64
2022-09-23T00:36:48.537Z,1017.63
2022-09-23T00:37:48.574Z,1017.57
2022-09-23T00:38:48.598Z,1017.59
2022-09-23T00:39:48.632Z,1017.58
2022-09-23T00:40:48.690Z,1017.61
2022-09-23T00:41:48.691Z,1017.59
2022-09-23T00:42:48.720Z,1017.58
2022-09-23T00:43:48.755Z,1017.58
2022-09-23T00:44:48.783Z,1017.57
2022-09-23T00:45:48.908Z,1017.59
2022-09-23T00:46:48.843Z,1017.56
2022-09-23T00:47:48.877Z,1017.57
2022-09-23T00:48:48.909Z,1017.53
2022-09-23T00:49:48.938Z,1017.54
2022-09-23T00:50:48.969Z,1017.51
2022-09-23T00:51:49.002Z,1017.51
2022-09-23T00:52:49.032Z,1017.53
2022-09-23T00:53:49.062Z,1017.55
2022-09-23T00:54:49.089Z,1017.52
2022-09-23T00:55:49.124Z,1017.53
2022-09-23T00:56:49.152Z,1017.49
2022-09-23T00:57:49.188Z,1017.52
2022-09-23T00:58:49.220Z,1017.48
2022-09-23T00:59:49.257Z,1017.49
2022-09-23T01:00:49.280Z,1017.51
2022-09-23T01:01:49.330Z,1017.44
2022-09-23T01:02:49.450Z,1017.45
2022-09-23T01:03:49.374Z,1017.43
2022-09-23T01:04:49.398Z,1017.39
2022-09-23T01:05:49.431Z,1017.42
2022-09-23T01:06:49.461Z,1017.38
2022-09-23T01:07:49.493Z,1017.42
2022-09-23T01:08:49.523Z,1017.38
2022-09-23T01:09:49.556Z,1017.39
2022-09-23T01:10:49.583Z,1017.37
2022-09-23T01:11:49.620Z,1017.39
2022-09-23T01:12:49.646Z,1017.37
2022-09-23T01:13:49.691Z,1017.38
2022-09-23T01:14:49.706Z,1017.31
2022-09-23T01:15:49.741Z,1017.30
2022-09-23T01:16:49.853Z,1017.29
2022-09-23T01:17:49.799Z,1017.28
2022-09-23T01:18:49.831Z,1017.30
2022-09-23T01:19:49.862Z,1017.33
2022-09-23T01:20:49.890Z,1017.32
2022-09-23T01:21:49.922Z,1017.29
2022-09-23T01:22:49.954Z,1017.30
2022-09-23T01:23:49.985Z,1017.29
2022-09-23T01:24:50.016Z,1017.26
2022-09-23T01:25:50.045Z,1017.24
2022-09-23T01:26:50.075Z,1017.31
2022-09-23T01:27:50.107Z,1017.27
2022-09-23T01:28:50.137Z,1017.28
2022-09-23T01:29:50.167Z,1017.27
2022-09-23T01:30:50.297Z,1017.26
2022-09-23T01:31:50.231Z,1017.23
2022-09-23T01:32:50.259Z,1017.24
2022-09-23T01:33:50.291Z,1017.25
2022-09-23T01:34:50.321Z,1017.24
2022-09-23T01:35:50.353Z,1017.23
2022-09-23T01:36:50.382Z,1017.23
2022-09-23T01:37:50.424Z,1017.20
2022-09-23T01:38:50.443Z,1017.19
2022-09-23T01:39:50.474Z,1017.22
2022-09-23T01:40:50.582Z,1017.19
2022-09-23T01:41:50.536Z,1017.20
2022-09-23T01:42:50.566Z,1017.18
2022-09-23T01:43:50.601Z,1017.17
2022-09-23T01:44:50.625Z,1017.16
2022-09-23T01:45:50.659Z,1017.16
2022-09-23T01:46:50.685Z,1017.17
2022-09-23T01:47:50.759Z,1017.12
2022-09-23T01:48:50.747Z,1017.13
2022-09-23T01:49:50.779Z,1017.16
2022-09-23T01:50:50.810Z,1017.11
2022-09-23T01:51:50.840Z,1017.11
2022-09-23T01:52:50.869Z,1017.10
2022-09-23T01:53:50.900Z,1017.14
2022-09-23T01:54:50.933Z,1017.10
2022-09-23T01:55:50.961Z,1017.15
2022-09-23T01:56:51.010Z,1017.13
2022-09-23T01:57:51.026Z,1017.11
2022-09-23T01:58:51.058Z,1017.12
2022-09-23T01:59:51.093Z,1017.13
2022-09-23T02:00:51.214Z,1017.10
2022-09-23T02:01:51.144Z,1017.13
2022-09-23T02:02:51.194Z,1017.08
2022-09-23T02:03:51.208Z,1017.08
2022-09-23T02:04:51.238Z,1017.12
2022-09-23T02:05:51.266Z,1017.07
2022-09-23T02:06:51.298Z,1017.11
2022-09-23T02:07:51.329Z,1017.06
2022-09-23T02:08:51.361Z,1017.07
2022-09-23T02:09:51.391Z,1017.08
2022-09-23T02:10:51.419Z,1017.02
2022-09-23T02:11:51.455Z,1017.05
2022-09-23T02:12:51.484Z,1016.97
2022-09-23T02:13:51.513Z,1017.02
2022-09-23T02:14:51.541Z,1017.01
2022-09-23T02:15:51.574Z,1016.97
2022-09-23T02:16:51.682Z,1016.98
2022-09-23T02:17:51.633Z,1016.99
2022-09-23T02:18:51.669Z,1016.97
2022-09-23T02:19:51.695Z,1016.96
2022-09-23T02:20:51.725Z,1016.97
2022-09-23T02:21:51.758Z,1016.94
2022-09-23T02:22:51.785Z,1016.92
2022-09-23T02:23:51.816Z,1016.93
2022-09-23T02:24:51.851Z,1016.89
2022-09-23T02:25:51.877Z,1016.89
2022-09-23T02:26:51.907Z,1016.89
2022-09-23T02:27:51.995Z,1016.85
2022-09-23T02:28:51.969Z,1016.83
2022-09-23T02:29:51.999Z,1016.84
2022-09-23T02:30:52.029Z,1016.80
2022-09-23T02:31:52.223Z,1016.80
2022-09-23T02:32:52.088Z,1016.77
2022-09-23T02:33:52.120Z,1016.77
2022-09-23T02:34:52.159Z,1016.79
2022-09-23T02:35:52.181Z,1016.75
2022-09-23T02:36:52.212Z,1016.76
2022-09-23T02:37:52.247Z,1016.75
2022-09-23T02:38:52.277Z,1016.69
2022-09-23T02:39:52.302Z,1016.68
2022-09-23T02:40:52.408Z,1016.67
2022-09-23T02:41:52.365Z,1016.66
2022-09-23T02:42:52.393Z,1016.69
2022-09-23T02:43:52.432Z,1016.67
2022-09-23T02:44:52.457Z,1016.70
2022-09-23T02:45:52.513Z,1016.69
2022-09-23T02:46:52.516Z,1016.68
2022-09-23T02:47:52.545Z,1016.68
2022-09-23T02:48:52.576Z,1016.66
2022-09-23T02:49:52.614Z,1016.65
2022-09-23T02:50:52.647Z,1016.62
2022-09-23T02:51:52.668Z,1016.59
2022-09-23T02:52:52.696Z,1016.58
2022-09-23T02:53:52.728Z,1016.58
2022-09-23T02:54:52.756Z,1016.58
2022-09-23T02:55:52.789Z,1016.58
2022-09-23T02:56:52.816Z,1016.56
2022-09-23T02:57:52.848Z,1016.56
2022-09-23T02:58:52.877Z,1016.55
2022-09-23T02:59:52.909Z,1016.52
2022-09-23T03:00:53.049Z,1016.53
2022-09-23T03:01:53.048Z,1016.54
2022-09-23T03:02:52.998Z,1016.52
2022-09-23T03:03:53.030Z,1016.52
2022-09-23T03:04:53.060Z,1016.53
2022-09-23T03:05:53.091Z,1016.51
2022-09-23T03:06:53.120Z,1016.54
2022-09-23T03:07:53.151Z,1016.50
2022-09-23T03:08:53.180Z,1016.52
2022-09-23T03:09:53.210Z,1016.49
2022-09-23T03:10:53.239Z,1016.50
2022-09-23T03:11:53.272Z,1016.50
2022-09-23T03:12:53.310Z,1016.51
2022-09-23T03:13:53.330Z,1016.46
2022-09-23T03:14:53.362Z,1016.47
2022-09-23T03:15:53.392Z,1016.47
2022-09-23T03:16:53.656Z,1016.43
2022-09-23T03:17:53.454Z,1016.41
2022-09-23T03:18:53.480Z,1016.42
2022-09-23T03:19:53.516Z,1016.41
2022-09-23T03:20:53.542Z,1016.38
2022-09-23T03:21:53.572Z,1016.37
2022-09-23T03:22:53.600Z,1016.35
2022-09-23T03:23:53.635Z,1016.35
2022-09-23T03:24:54.235Z,1016.34
2022-09-23T03:25:53.695Z,1016.35
2022-09-23T03:26:53.722Z,1016.36
2022-09-23T03:27:53.754Z,1016.35
2022-09-23T03:28:53.786Z,1016.36
2022-09-23T03:29:53.818Z,1016.30
2022-09-23T03:30:53.843Z,1016.35
2022-09-23T03:31:53.958Z,1016.31
2022-09-23T03:32:53.910Z,1016.29
2022-09-23T03:33:53.933Z,1016.32
2022-09-23T03:34:53.968Z,1016.31
2022-09-23T03:35:53.994Z,1016.26
2022-09-23T03:36:54.080Z,1016.27
2022-09-23T03:37:54.055Z,1016.25
2022-09-23T03:38:54.099Z,1016.25
2022-09-23T03:39:54.115Z,1016.27
2022-09-23T03:40:54.203Z,1016.25
2022-09-23T03:41:54.174Z,1016.27
2022-09-23T03:42:54.204Z,1016.31
2022-09-23T03:43:54.237Z,1016.25
2022-09-23T03:44:54.267Z,1016.25
2022-09-23T03:45:54.453Z,1016.23
2022-09-23T03:46:54.323Z,1016.25
2022-09-23T03:47:54.363Z,1016.25
2022-09-23T03:48:54.387Z,1016.24
2022-09-23T03:49:54.416Z,1016.24
2022-09-23T03:50:54.445Z,1016.25
2022-09-23T03:51:54.477Z,1016.22
2022-09-23T03:52:54.503Z,1016.24
2022-09-23T03:53:54.535Z,1016.20
2022-09-23T03:54:54.564Z,1016.21
2022-09-23T03:55:54.597Z,1016.19
2022-09-23T03:56:54.631Z,1016.15
2022-09-23T03:57:54.656Z,1016.17
2022-09-23T03:58:54.684Z,1016.15
2022-09-23T03:59:54.718Z,1016.16
2022-09-23T04:00:54.860Z,1016.13
2022-09-23T04:01:54.805Z,1016.11
2022-09-23T04:02:54.805Z,1016.12
2022-09-23T04:03:54.836Z,1016.14
2022-09-23T04:04:54.876Z,1016.11
2022-09-23T04:05:54.902Z,1016.07
2022-09-23T04:06:54.924Z,1016.08
2022-09-23T04:07:54.955Z,1016.09
2022-09-23T04:08:54.984Z,1016.09
2022-09-23T04:09:55.020Z,1016.06
2022-09-23T04:10:55.100Z,1016.04
2022-09-23T04:11:55.079Z,1016.03
2022-09-23T04:12:55.124Z,1016.01
2022-09-23T04:13:55.135Z,1016.04
2022-09-23T04:14:55.165Z,1016.02
2022-09-23T04:15:55.232Z,1016.03
2022-09-23T04:16:55.224Z,1016.02
2022-09-23T04:17:55.256Z,1016.00
2022-09-23T04:18:55.285Z,1015.97
2022-09-23T04:19:55.321Z,1015.98
2022-09-23T04:20:55.345Z,1015.99
2022-09-23T04:21:55.375Z,1015.95
2022-09-23T04:22:55.403Z,1015.97
2022-09-23T04:23:55.435Z,1015.97
2022-09-23T04:24:55.463Z,1015.95
2022-09-23T04:25:55.495Z,1015.96
2022-09-23T04:26:55.522Z,1015.96
2022-09-23T04:27:55.575Z,1015.96
2022-09-23T04:28:55.585Z,1015.93
2022-09-23T04:29:55.613Z,1015.95
2022-09-23T04:30:55.647Z,1015.95
2022-09-23T04:31:55.729Z,1015.98
2022-09-23T04:32:55.709Z,1015.94
2022-09-23T04:33:55.733Z,1015.92
2022-09-23T04:34:55.763Z,1015.93
2022-09-23T04:35:55.793Z,1015.92
2022-09-23T04:36:55.831Z,1015.89
2022-09-23T04:37:55.852Z,1015.92
2022-09-23T04:38:55.885Z,1015.94
2022-09-23T04:39:55.916Z,1015.95
2022-09-23T04:40:55.944Z,1015.92
2022-09-23T04:41:55.971Z,1015.94
2022-09-23T04:42:56.005Z,1015.90
2022-09-23T04:43:56.031Z,1015.90
2022-09-23T04:44:56.063Z,1015.92
2022-09-23T04:45:56.093Z,1015.89
2022-09-23T04:46:56.247Z,1015.91
2022-09-23T04:47:56.151Z,1015.88
2022-09-23T04:48:56.183Z,1015.87
2022-09-23T04:49:59.679Z,1015.86
2022-09-23T04:50:56.247Z,1015.88
2022-09-23T04:51:56.273Z,1015.89
2022-09-23T04:52:56.382Z,1015.85
2022-09-23T04:53:56.328Z,1015.85
2022-09-23T04:54:56.361Z,1015.87
2022-09-23T04:55:56.392Z,1015.89
2022-09-23T04:56:56.421Z,1015.87
2022-09-23T04:57:56.449Z,1015.87
2022-09-23T04:58:56.481Z,1015.83
2022-09-23T04:59:56.509Z,1015.87
2022-09-23T05:00:59.440Z,1015.90
2022-09-23T05:01:56.632Z,1015.91
2022-09-23T05:02:56.605Z,1015.89
2022-09-23T05:03:56.630Z,1015.89
2022-09-23T05:04:56.662Z,1015.87
2022-09-23T05:05:56.689Z,1015.87
2022-09-23T05:07:02.248Z,1015.87
2022-09-23T05:07:56.755Z,1015.87
2022-09-23T05:08:56.844Z,1015.87
2022-09-23T05:09:56.811Z,1015.89
2022-09-23T05:10:56.842Z,1015.83
2022-09-23T05:11:56.871Z,1015.88
2022-09-23T05:12:57.472Z,1015.87
2022-09-23T05:13:56.930Z,1015.88
2022-09-23T05:14:56.961Z,1015.84
2022-09-23T05:15:57.036Z,1015.81
2022-09-23T05:16:57.025Z,1015.86
2022-09-23T05:17:57.051Z,1015.85
2022-09-23T05:18:57.084Z,1015.87
2022-09-23T05:19:57.112Z,1015.85
2022-09-23T05:20:57.145Z,1015.87
2022-09-23T05:21:57.171Z,1015.87
2022-09-23T05:22:57.203Z,1015.85
2022-09-23T05:23:57.230Z,1015.80
2022-09-23T05:24:57.265Z,1015.85
2022-09-23T05:25:57.292Z,1015.84
2022-09-23T05:26:57.323Z,1015.88
2022-09-23T05:27:57.353Z,1015.87
2022-09-23T05:28:57.394Z,1015.86
2022-09-23T05:29:57.424Z,1015.89
2022-09-23T05:30:57.481Z,1015.88
2022-09-23T05:31:57.504Z,1015.89
2022-09-23T05:32:57.508Z,1015.86
2022-09-23T05:33:57.572Z,1015.88
2022-09-23T05:34:57.576Z,1015.83
2022-09-23T05:35:57.594Z,1015.87
2022-09-23T05:36:57.625Z,1015.86
2022-09-23T05:37:57.655Z,1015.90
2022-09-23T05:38:57.685Z,1015.89
2022-09-23T05:39:57.713Z,1015.86
2022-09-23T05:40:57.745Z,1015.84
2022-09-23T05:41:57.773Z,1015.86
2022-09-23T05:42:57.805Z,1015.84
2022-09-23T05:43:57.833Z,1015.81
2022-09-23T05:44:57.865Z,1015.84
2022-09-23T05:45:57.894Z,1015.82
2022-09-23T05:46:57.969Z,1015.80
2022-09-23T05:47:57.954Z,1015.82
2022-09-23T05:49:02.204Z,1015.78
2022-09-23T05:50:00.509Z,1015.83
2022-09-23T05:50:58.046Z,1015.82
2022-09-23T05:51:58.075Z,1015.78
2022-09-23T05:52:58.104Z,1015.79
2022-09-23T05:53:58.134Z,1015.80
2022-09-23T05:54:58.167Z,1015.83
2022-09-23T05:55:58.251Z,1015.76
2022-09-23T05:57:00.292Z,1015.83
2022-09-23T05:57:58.253Z,1015.78
2022-09-23T05:58:58.286Z,1015.82
2022-09-23T05:59:58.316Z,1015.83
2022-09-23T06:00:58.348Z,1015.84
2022-09-23T06:01:58.407Z,1015.82
2022-09-23T06:02:58.494Z,1015.80
2022-09-23T06:03:58.436Z,1015.83
2022-09-23T06:04:58.487Z,1015.80
2022-09-23T06:05:58.495Z,1015.84
2022-09-23T06:07:03.049Z,1015.82
2022-09-23T06:07:58.565Z,1015.82
2022-09-23T06:08:58.605Z,1015.80
2022-09-23T06:09:58.615Z,1015.79
2022-09-23T06:10:58.647Z,1015.84
2022-09-23T06:11:58.679Z,1015.82
2022-09-23T06:12:58.722Z,1015.83
2022-09-23T06:13:58.834Z,1015.83
2022-09-23T06:14:58.767Z,1015.83
2022-09-23T06:15:58.886Z,1015.84
2022-09-23T06:16:58.828Z,1015.85
2022-09-23T06:17:58.859Z,1015.82
2022-09-23T06:19:04.430Z,1015.80
2022-09-23T06:19:58.919Z,1015.79
2022-09-23T06:20:58.950Z,1015.80
2022-09-23T06:21:58.980Z,1015.80
2022-09-23T06:22:59.010Z,1015.79
2022-09-23T06:23:59.043Z,1015.79
2022-09-23T06:24:59.072Z,1015.82
2022-09-23T06:25:59.100Z,1015.81
2022-09-23T06:26:59.140Z,1015.80
2022-09-23T06:27:59.161Z,1015.82
2022-09-23T06:28:59.199Z,1015.83
2022-09-23T06:29:59.223Z,1015.81
2022-09-23T06:30:59.305Z,1015.83
2022-09-23T06:31:59.370Z,1015.81
2022-09-23T06:32:59.315Z,1015.83
2022-09-23T06:34:09.282Z,1015.82
2022-09-23T06:34:59.379Z,1015.84
2022-09-23T06:36:00.055Z,1015.84
2022-09-23T06:37:05.218Z,1015.81
2022-09-23T06:37:59.477Z,1015.88
2022-09-23T06:38:59.498Z,1015.85
2022-09-23T06:39:59.529Z,1015.87
2022-09-23T06:40:59.560Z,1015.87
2022-09-23T06:41:59.590Z,1015.88
2022-09-23T06:42:59.621Z,1015.88
2022-09-23T06:43:59.651Z,1015.83
2022-09-23T06:44:59.687Z,1015.83
2022-09-23T06:45:59.720Z,1015.88
2022-09-23T06:46:59.813Z,1015.89
2022-09-23T06:47:59.774Z,1015.89
2022-09-23T06:48:59.805Z,1015.91
2022-09-23T06:49:59.833Z,1015.89
2022-09-23T06:50:59.868Z,1015.88
2022-09-23T06:51:59.896Z,1015.90
2022-09-23T06:52:59.936Z,1015.89
2022-09-23T06:54:00.038Z,1015.92
2022-09-23T06:54:59.996Z,1015.93
2022-09-23T06:56:00.034Z,1015.91
2022-09-23T06:57:00.061Z,1015.90
2022-09-23T06:58:00.081Z,1015.92
2022-09-23T06:59:00.117Z,1015.91
2022-09-23T07:00:00.161Z,1015.93
2022-09-23T07:01:00.179Z,1015.93
2022-09-23T07:02:00.409Z,1015.93
2022-09-23T07:03:00.328Z,1015.89
2022-09-23T07:04:00.270Z,1015.93
2022-09-23T07:05:00.300Z,1015.89
2022-09-23T07:06:00.330Z,1015.88
2022-09-23T07:07:00.362Z,1015.94
2022-09-23T07:08:00.393Z,1015.90
2022-09-23T07:09:00.425Z,1015.94
2022-09-23T07:10:00.456Z,1015.92
2022-09-23T07:11:00.487Z,1015.94
2022-09-23T07:12:00.517Z,1015.91
2022-09-23T07:13:00.556Z,1015.92
2022-09-23T07:14:00.592Z,1015.94
2022-09-23T07:15:00.615Z,1015.92
2022-09-23T07:16:00.742Z,1015.98
2022-09-23T07:17:00.693Z,1015.95
2022-09-23T07:18:00.705Z,1015.97
2022-09-23T07:19:00.745Z,1015.95
2022-09-23T07:20:00.768Z,1015.92
2022-09-23T07:21:00.801Z,1015.94
2022-09-23T07:22:00.832Z,1015.94
2022-09-23T07:23:00.864Z,1015.91
2022-09-23T07:24:00.894Z,1015.90
2022-09-23T07:25:00.927Z,1015.94
2022-09-23T07:26:00.956Z,1015.92
2022-09-23T07:27:00.990Z,1015.95
2022-09-23T07:28:01.022Z,1015.93
2022-09-23T07:29:01.054Z,1015.94
2022-09-23T07:30:01.092Z,1015.91
2022-09-23T07:31:01.344Z,1015.95
2022-09-23T07:32:11.764Z,1015.91
2022-09-23T07:33:01.500Z,1015.93
2022-09-23T07:34:01.447Z,1015.92
2022-09-23T07:35:01.256Z,1015.92
2022-09-23T07:36:01.274Z,1015.91
2022-09-23T07:37:01.307Z,1015.88
2022-09-23T07:38:01.337Z,1015.90
2022-09-23T07:39:01.373Z,1015.91
2022-09-23T07:40:01.401Z,1015.89
2022-09-23T07:41:01.434Z,1015.88
2022-09-23T07:42:01.465Z,1015.91
2022-09-23T07:43:01.498Z,1015.93
2022-09-23T07:44:01.541Z,1015.91
2022-09-23T07:45:01.563Z,1015.89
2022-09-23T07:46:01.697Z,1015.87
2022-09-23T07:47:01.626Z,1015.85
2022-09-23T07:48:01.657Z,1015.88
2022-09-23T07:49:01.777Z,1015.90
2022-09-23T07:50:01.722Z,1015.92
2022-09-23T07:51:01.754Z,1015.92
2022-09-23T07:52:01.787Z,1015.91
2022-09-23T07:53:01.820Z,1015.90
2022-09-23T07:54:01.850Z,1015.91
2022-09-23T07:55:01.884Z,1015.93
2022-09-23T07:56:01.916Z,1015.93
2022-09-23T07:57:01.952Z,1015.91
2022-09-23T07:58:01.978Z,1015.88
2022-09-23T07:59:02.045Z,1015.89
2022-09-23T08:00:02.046Z,1015.89
2022-09-23T08:01:02.077Z,1015.91
2022-09-23T08:02:02.185Z,1015.89
2022-09-23T08:03:02.230Z,1015.90
2022-09-23T08:04:02.174Z,1015.90
2022-09-23T08:05:02.208Z,1015.89
2022-09-23T08:06:02.239Z,1015.90
2022-09-23T08:07:02.274Z,1015.90
2022-09-23T08:08:02.304Z,1015.97
2022-09-23T08:09:02.336Z,1015.94
2022-09-23T08:10:02.367Z,1015.92
2022-09-23T08:11:02.401Z,1015.94
2022-09-23T08:12:02.433Z,1015.95
2022-09-23T08:13:02.470Z,1015.95
2022-09-23T08:14:02.567Z,1015.93
2022-09-23T08:15:02.531Z,1015.91
2022-09-23T08:16:02.614Z,1015.89
2022-09-23T08:17:02.598Z,1015.84
2022-09-23T08:18:02.627Z,1015.90
2022-09-23T08:19:02.729Z,1015.90
2022-09-23T08:20:02.700Z,1015.83
2022-09-23T08:21:02.784Z,1015.81
2022-09-23T08:22:02.766Z,1015.86
2022-09-23T08:23:02.793Z,1015.84
2022-09-23T08:24:02.914Z,1015.88
2022-09-23T08:25:02.859Z,1015.87
2022-09-23T08:26:02.890Z,1015.89
2022-09-23T08:27:02.930Z,1015.87
2022-09-23T08:28:02.956Z,1015.85
2022-09-23T08:29:02.991Z,1015.83
2022-09-23T08:30:03.022Z,1015.85
2022-09-23T08:31:03.109Z,1015.81
2022-09-23T08:32:03.086Z,1015.80
2022-09-23T08:33:03.122Z,1015.78
2022-09-23T08:34:03.224Z,1015.79
2022-09-23T08:35:03.189Z,1015.82
2022-09-23T08:36:03.219Z,1015.80
2022-09-23T08:37:03.253Z,1015.82
2022-09-23T08:38:03.288Z,1015.85
2022-09-23T08:39:03.322Z,1015.82
2022-09-23T08:40:03.542Z,1015.83
2022-09-23T08:41:03.386Z,1015.80
2022-09-23T08:42:03.421Z,1015.77
2022-09-23T08:43:03.457Z,1015.76
2022-09-23T08:44:03.487Z,1015.74
2022-09-23T08:45:03.516Z,1015.75
2022-09-23T08:46:03.568Z,1015.78
2022-09-23T08:47:03.585Z,1015.78
2022-09-23T08:48:03.617Z,1015.83
2022-09-23T08:49:03.651Z,1015.75
2022-09-23T08:50:03.685Z,1015.73
2022-09-23T08:51:03.716Z,1015.69
2022-09-23T08:52:03.753Z,1015.66
2022-09-23T08:53:03.785Z,1015.69
2022-09-23T08:54:03.817Z,1015.63
2022-09-23T08:55:03.915Z,1015.64
2022-09-23T08:56:03.927Z,1015.63
2022-09-23T08:57:03.922Z,1015.63
2022-09-23T08:58:26.527Z,1015.62
2022-09-23T08:59:03.992Z,1015.63
2022-09-23T09:00:04.020Z,1015.58
2022-09-23T09:01:04.122Z,1015.59
2022-09-23T09:02:04.092Z,1015.58
2022-09-23T09:03:04.119Z,1015.57
2022-09-23T09:04:04.156Z,1015.61
2022-09-23T09:05:04.189Z,1015.61
2022-09-23T09:06:04.229Z,1015.60
2022-09-23T09:07:31.737Z,1015.63
2022-09-23T09:08:04.333Z,1015.64
2022-09-23T09:09:04.393Z,1015.59
2022-09-23T09:10:04.367Z,1015.64
2022-09-23T09:11:04.392Z,1015.61
2022-09-23T09:12:04.427Z,1015.62
2022-09-23T09:13:04.460Z,1015.68
2022-09-23T09:14:04.494Z,1015.66
2022-09-23T09:15:04.530Z,1015.65
2022-09-23T09:16:04.657Z,1015.67
2022-09-23T09:17:04.685Z,1015.63
2022-09-23T09:18:04.726Z,1015.66
2022-09-23T09:19:04.667Z,1015.61
2022-09-23T09:20:04.703Z,1015.63
2022-09-23T09:21:04.769Z,1015.63
2022-09-23T09:22:04.768Z,1015.69
2022-09-23T09:23:04.802Z,1015.64
2022-09-23T09:24:04.837Z,1015.62
2022-09-23T09:25:04.965Z,1015.64
2022-09-23T09:26:04.906Z,1015.57
2022-09-23T09:27:04.943Z,1015.65
2022-09-23T09:28:04.977Z,1015.57
2022-09-23T09:29:17.221Z,1015.59
2022-09-23T09:30:05.045Z,1015.56
2022-09-23T09:31:05.118Z,1015.52
2022-09-23T09:32:05.114Z,1015.52
2022-09-23T09:33:05.147Z,1015.50
2022-09-23T09:34:05.184Z,1015.52
2022-09-23T09:35:05.218Z,1015.48
2022-09-23T09:36:05.254Z,1015.54
2022-09-23T09:37:07.188Z,1015.51
2022-09-23T09:38:05.329Z,1015.52
2022-09-23T09:39:05.474Z,1015.51
2022-09-23T09:40:05.441Z,1015.48
2022-09-23T09:41:05.430Z,1015.43
2022-09-23T09:42:05.464Z,1015.44
2022-09-23T09:43:05.526Z,1015.47
2022-09-23T09:44:05.543Z,1015.45
2022-09-23T09:45:05.570Z,1015.41
2022-09-23T09:46:05.606Z,1015.41
2022-09-23T09:47:05.640Z,1015.39
2022-09-23T09:48:05.676Z,1015.35
2022-09-23T09:49:05.781Z,1015.32
2022-09-23T09:50:05.747Z,1015.29
2022-09-23T09:51:05.782Z,1015.24
2022-09-23T09:52:05.817Z,1015.25
2022-09-23T09:53:05.799Z,1015.29
2022-09-23T09:54:05.835Z,1015.27
2022-09-23T09:55:05.868Z,1015.28
2022-09-23T09:56:06.112Z,1015.29
2022-09-23T09:57:05.941Z,1015.25
2022-09-23T09:58:05.975Z,1015.25
2022-09-23T09:59:06.162Z,1015.19
2022-09-23T10:00:06.046Z,1015.19
2022-09-23T10:01:06.112Z,1015.14
2022-09-23T10:02:06.115Z,1015.14
2022-09-23T10:03:06.152Z,1015.19
2022-09-23T10:04:06.296Z,1015.15
2022-09-23T10:05:06.229Z,1015.16
2022-09-23T10:06:06.259Z,1015.16
2022-09-23T10:07:06.298Z,1015.14
2022-09-23T10:08:06.333Z,1015.15
2022-09-23T10:09:06.509Z,1015.14
2022-09-23T10:10:22.068Z,1015.13
2022-09-23T10:11:06.437Z,1015.11
2022-09-23T10:12:06.474Z,1015.12
2022-09-23T10:13:06.559Z,1015.13
2022-09-23T10:14:06.545Z,1015.10
2022-09-23T10:15:06.583Z,1015.12
2022-09-23T10:16:06.618Z,1015.14
2022-09-23T10:17:06.748Z,1015.11
2022-09-23T10:18:06.688Z,1015.10
2022-09-23T10:19:06.830Z,1015.10
2022-09-23T10:20:06.764Z,1015.08
2022-09-23T10:21:06.799Z,1015.10
2022-09-23T10:22:06.835Z,1015.12
2022-09-23T10:23:06.871Z,1015.16
2022-09-23T10:24:06.911Z,1015.14
2022-09-23T10:25:06.944Z,1015.17
2022-09-23T10:26:06.983Z,1015.14
2022-09-23T10:27:07.020Z,1015.13
2022-09-23T10:28:08.090Z,1015.10
2022-09-23T10:29:07.316Z,1015.07
2022-09-23T10:30:07.128Z,1015.03
2022-09-23T10:31:07.196Z,1015.07
2022-09-23T10:32:07.202Z,1015.04
2022-09-23T10:33:07.236Z,1015.06
2022-09-23T10:34:07.278Z,1015.04
2022-09-23T10:35:07.311Z,1015.02
2022-09-23T10:36:07.349Z,1015.00
2022-09-23T10:37:07.383Z,1014.98
2022-09-23T10:38:07.420Z,1015.04
2022-09-23T10:39:07.474Z,1015.01
2022-09-23T10:40:07.612Z,1015.04
2022-09-23T10:42:07.569Z,1015.01
2022-09-23T10:43:07.604Z,1015.04
2022-09-23T10:44:07.755Z,1015.03
2022-09-23T10:45:07.698Z,1014.99
2022-09-23T10:46:07.764Z,1014.95
2022-09-23T10:47:07.754Z,1014.99
2022-09-23T10:48:07.788Z,1014.96
2022-09-23T10:49:07.831Z,1015.06
2022-09-23T10:50:07.866Z,1015.02
2022-09-23T10:51:07.901Z,1014.98
2022-09-23T10:52:07.937Z,1014.95
2022-09-23T10:53:07.974Z,1014.96
2022-09-23T10:54:08.143Z,1014.98
2022-09-23T10:55:08.046Z,1014.98
2022-09-23T10:56:08.086Z,1015.00
2022-09-23T10:57:08.126Z,1014.98
2022-09-23T10:58:08.159Z,1014.97
2022-09-23T10:59:08.197Z,1014.98
2022-09-23T11:00:08.235Z,1014.89
2022-09-23T11:01:08.414Z,1014.94
2022-09-23T11:02:08.310Z,1014.91
2022-09-23T11:03:08.346Z,1014.89
2022-09-23T11:04:09.059Z,1014.87
2022-09-23T11:05:08.544Z,1014.85
2022-09-23T11:06:08.458Z,1014.83
2022-09-23T11:07:08.492Z,1014.82
2022-09-23T11:08:08.532Z,1014.84
2022-09-23T11:09:08.567Z,1014.82
2022-09-23T11:10:18.570Z,1014.81
2022-09-23T11:11:08.641Z,1014.77
2022-09-23T11:12:08.681Z,1014.72
2022-09-23T11:13:08.719Z,1014.74
2022-09-23T11:14:08.829Z,1014.74
2022-09-23T11:15:08.796Z,1014.75
2022-09-23T11:16:08.876Z,1014.65
2022-09-23T11:17:08.943Z,1014.72
2022-09-23T11:18:08.906Z,1014.66
2022-09-23T11:19:08.944Z,1014.72
2022-09-23T11:20:08.985Z,1014.68
2022-09-23T11:21:09.018Z,1014.63
2022-09-23T11:22:09.059Z,1014.64
2022-09-23T11:23:09.094Z,1014.60
2022-09-23T11:24:09.133Z,1014.56
2022-09-23T11:25:09.170Z,1014.58
2022-09-23T11:26:09.208Z,1014.55
2022-09-23T11:27:09.255Z,1014.55
2022-09-23T11:28:09.285Z,1014.51
2022-09-23T11:29:09.330Z,1014.49
2022-09-23T11:30:09.366Z,1014.53
2022-09-23T11:31:09.454Z,1014.46
2022-09-23T11:32:09.433Z,1014.51
2022-09-23T11:33:09.757Z,1014.41
2022-09-23T11:34:09.580Z,1014.52
2022-09-23T11:35:09.546Z,1014.49
2022-09-23T11:36:09.582Z,1014.45
2022-09-23T11:37:09.622Z,1014.45
2022-09-23T11:38:09.659Z,1014.38
2022-09-23T11:39:09.697Z,1014.39
2022-09-23T11:40:09.780Z,1014.41
2022-09-23T11:41:09.770Z,1014.40
2022-09-23T11:42:09.812Z,1014.32
2022-09-23T11:43:09.849Z,1014.30
2022-09-23T11:44:09.922Z,1014.26
2022-09-23T11:45:09.925Z,1014.27
2022-09-23T11:46:10.147Z,1014.24
2022-09-23T11:47:10.003Z,1014.24
2022-09-23T11:48:10.043Z,1014.28
2022-09-23T11:49:10.073Z,1014.21
2022-09-23T11:50:10.111Z,1014.25
2022-09-23T11:51:10.147Z,1014.22
2022-09-23T11:52:10.187Z,1014.21
2022-09-23T11:53:10.225Z,1014.23
2022-09-23T11:54:10.275Z,1014.23
2022-09-23T11:55:17.155Z,1014.25
2022-09-23T11:56:10.349Z,1014.17
2022-09-23T11:57:10.379Z,1014.17
2022-09-23T11:58:21.379Z,1014.19
2022-09-23T11:59:10.735Z,1014.21
2022-09-23T12:00:10.496Z,1014.14
2022-09-23T12:01:10.526Z,1014.13
2022-09-23T12:02:19.390Z,1014.08
2022-09-23T12:03:10.722Z,1014.10
2022-09-23T12:04:18.663Z,1014.06
2022-09-23T12:05:10.870Z,1014.09
2022-09-23T12:06:10.715Z,1014.09
2022-09-23T12:07:10.753Z,1014.06